This is the latest recevied weather packets stored in our database for station/object WD7CGF. If no packets are shown the sender has not sent any weather packets the latest 1 day(s).
| Time | Temp. | Humidity | Pressure | Rain* | Wind** | Luminosity | Snow |
|---|---|---|---|---|---|---|---|
| 1778057299 | 15.56° C | 61% | 1011.6 hPa | 0 mm | - | - | - |
| 1778055514 | 15.56° C | 60% | 1011.6 hPa | 0 mm | - | - | - |
| 1778054909 | 16.11° C | 59% | 1011.5 hPa | 0 mm | - | - | - |
| 1778054301 | 16.11° C | 59% | 1011.4 hPa | 0 mm | - | - | - |
| 1778053104 | 16.11° C | 59% | 1011.3 hPa | 0 mm | - | - | - |
| 1778052515 | 16.11° C | 59% | 1011.3 hPa | 0 mm | - | - | - |
| 1778051903 | 16.67° C | 60% | 1011.3 hPa | 0 mm | - | - | - |
| 1778050707 | 16.67° C | 59% | 1011.3 hPa | 0 mm | - | - | - |
| 1778049513 | 16.11° C | 63% | 1011.4 hPa | 0 mm | - | - | - |
| 1778048904 | 15.56° C | 64% | 1011.3 hPa | 0 mm | - | - | - |
| 1778048314 | 15.56° C | 64% | 1011.3 hPa | 0 mm | - | - | - |
| 1778047112 | 16.11° C | 63% | 1011 hPa | 0 mm | - | - | - |
| 1778045916 | 16.67° C | 62% | 1010.8 hPa | 0 mm | - | - | - |
| 1778045310 | 16.67° C | 62% | 1010.7 hPa | 0 mm | - | - | - |
| 1778044110 | 17.22° C | 60% | 1010.8 hPa | 0 mm | - | - | - |
| 1778043501 | 17.22° C | 59% | 1010.6 hPa | 0 mm | - | - | - |
| 1778042918 | 17.78° C | 59% | 1010.6 hPa | 0 mm | - | - | - |
| 1778041699 | 18.33° C | 56% | 1010.2 hPa | 0 mm | - | - | - |
| 1778041109 | 19.44° C | 53% | 1010.2 hPa | 0 mm | - | - | - |
| 1778039318 | 21.11° C | 47% | 1009.8 hPa | 0 mm | - | - | - |
| 1778038702 | 21.11° C | 46% | 1009.4 hPa | 0 mm | - | - | - |
| 1778038111 | 21.67° C | 44% | 1009.2 hPa | 0 mm | - | - | - |
| 1778037519 | 22.22° C | 42% | 1009.2 hPa | 0 mm | - | - | - |
| 1778036911 | 22.78° C | 40% | 1009.3 hPa | 0 mm | - | - | - |
| 1778036317 | 23.33° C | 39% | 1009.2 hPa | 0 mm | - | - | - |
* Rain latest hour (hover to see other rain measurements)
** Current wind speed in m/s (hover to see current wind gust speed)